Time;durP1;ratioP1;P1;durP2;ratioP2;P2;SDS_P1;SDS_P2;PMS_P1;PMS_P2;Temp;Humidity;BMP_temperature;BMP_pressure;BME280_temperature;BME280_humidity;BME280_pressure;Samples;Min_cycle;Max_cycle;Signal;HPM_P1;HPM_P2
2020/12/19 00:02:11;;;;;;;4.90;3.93;;;;;;;;;;5091567;28;20551;-62
2020/12/19 00:04:37;;;;;;;7.83;4.77;;;;;;;;;;5099136;28;20213;-60
2020/12/19 00:07:03;;;;;;;6.33;3.80;;;;;;;;;;5108852;28;20171;-61
2020/12/19 00:09:29;;;;;;;5.63;4.33;;;;;;;;;;5090840;28;20186;-59
2020/12/19 00:11:55;;;;;;;5.73;4.80;;;;;;;;;;5101648;28;20634;-60
2020/12/19 00:14:22;;;;;;;5.13;4.20;;;;;;;;;;5093453;28;20630;-61
2020/12/19 00:16:48;;;;;;;6.07;4.70;;;;;;;;;;5113655;27;20225;-60
2020/12/19 00:19:14;;;;;;;5.53;4.00;;;;;;;;;;5098207;28;20241;-60
2020/12/19 00:21:40;;;;;;;5.17;4.30;;;;;;;;;;5101230;28;20195;-59
2020/12/19 00:24:09;;;;;;;5.50;4.53;;;;;;;;;;5108816;28;20497;-62
2020/12/19 00:26:35;;;;;;;6.23;4.43;;;;;;;;;;5103090;28;20202;-59
2020/12/19 00:29:01;;;;;;;4.70;4.20;;;;;;;;;;5098392;28;20175;-60
2020/12/19 00:31:28;;;;;;;7.43;4.63;;;;;;;;;;5090128;28;20662;-60
2020/12/19 00:33:54;;;;;;;5.30;4.33;;;;;;;;;;5102812;28;20182;-59
2020/12/19 00:36:20;;;;;;;4.53;3.97;;;;;;;;;;5095059;28;20188;-60
2020/12/19 00:38:46;;;;;;;5.30;4.73;;;;;;;;;;5095820;28;20175;-60
2020/12/19 00:41:23;;;;;;;6.40;4.07;;;;;;;;;;5090218;28;20195;-60
2020/12/19 00:43:49;;;;;;;6.87;4.90;;;;;;;;;;5085212;28;20183;-60
2020/12/19 00:46:16;;;;;;;4.30;3.90;;;;;;;;;;5103742;27;20194;-60
2020/12/19 00:48:42;;;;;;;5.57;4.87;;;;;;;;;;5109177;28;20586;-62
2020/12/19 00:51:12;;;;;;;5.00;3.97;;;;;;;;;;5105178;28;20183;-59
2020/12/19 00:53:38;;;;;;;7.27;4.57;;;;;;;;;;5099689;28;20215;-59
2020/12/19 00:56:04;;;;;;;5.30;4.10;;;;;;;;;;5094084;28;20175;-60
2020/12/19 00:58:30;;;;;;;5.00;3.97;;;;;;;;;;5096234;28;20187;-59
2020/12/19 01:00:56;;;;;;;5.50;4.20;;;;;;;;;;5110411;28;20291;-61
2020/12/19 01:03:22;;;;;;;5.17;4.23;;;;;;;;;;5107459;28;20261;-60
2020/12/19 01:05:49;;;;;;;5.37;4.83;;;;;;;;;;5114047;28;20537;-59
2020/12/19 01:08:15;;;;;;;6.50;4.67;;;;;;;;;;5111475;28;20179;-60
2020/12/19 01:10:40;;;;;;;5.43;4.50;;;;;;;;;;5113794;28;20614;-60
2020/12/19 01:13:06;;;;;;;8.90;4.60;;;;;;;;;;5101100;28;20187;-61
2020/12/19 01:15:32;;;;;;;5.77;4.33;;;;;;;;;;5120091;27;20190;-63
2020/12/19 01:17:58;;;;;;;4.80;4.17;;;;;;;;;;5099589;28;20176;-59
2020/12/19 01:20:24;;;;;;;5.47;4.43;;;;;;;;;;5105301;28;20214;-59
2020/12/19 01:22:50;;;;;;;5.30;4.50;;;;;;;;;;5111974;28;20190;-60
2020/12/19 01:25:16;;;;;;;5.27;4.17;;;;;;;;;;5077121;28;20179;-61
2020/12/19 01:27:42;;;;;;;5.97;4.70;;;;;;;;;;5077713;28;20179;-60
2020/12/19 01:30:08;;;;;;;5.17;4.67;;;;;;;;;;5093726;28;20616;-59
2020/12/19 01:32:34;;;;;;;6.50;4.77;;;;;;;;;;5094038;28;20184;-59
2020/12/19 01:35:00;;;;;;;5.73;4.87;;;;;;;;;;5093634;28;20187;-60
2020/12/19 01:37:26;;;;;;;5.67;4.33;;;;;;;;;;5098084;28;20655;-60
2020/12/19 01:39:52;;;;;;;5.17;4.67;;;;;;;;;;5094370;28;20655;-60
2020/12/19 01:42:18;;;;;;;7.00;5.23;;;;;;;;;;5092582;28;20172;-60
2020/12/19 01:44:44;;;;;;;5.57;4.70;;;;;;;;;;5110443;27;20179;-61
2020/12/19 01:47:11;;;;;;;5.30;4.30;;;;;;;;;;5100577;28;20210;-60
2020/12/19 01:49:38;;;;;;;5.90;5.00;;;;;;;;;;5092650;28;20175;-60
2020/12/19 01:52:05;;;;;;;5.67;4.57;;;;;;;;;;5106888;28;20190;-60
2020/12/19 01:54:32;;;;;;;5.93;5.20;;;;;;;;;;5099222;28;20179;-60
2020/12/19 01:57:00;;;;;;;5.33;4.70;;;;;;;;;;5091446;28;20297;-60
2020/12/19 01:59:27;;;;;;;10.23;5.23;;;;;;;;;;5078354;28;20187;-59
2020/12/19 02:01:54;;;;;;;5.47;4.57;;;;;;;;;;5092453;28;20230;-60
2020/12/19 02:04:21;;;;;;;5.90;4.83;;;;;;;;;;5108901;28;20223;-59
2020/12/19 02:06:48;;;;;;;6.50;4.77;;;;;;;;;;5109250;28;20183;-63
2020/12/19 02:09:15;;;;;;;10.77;5.37;;;;;;;;;;5108354;28;20637;-60
2020/12/19 02:11:43;;;;;;;6.90;5.23;;;;;;;;;;5112690;28;20175;-60
2020/12/19 02:14:09;;;;;;;6.03;4.40;;;;;;;;;;5098302;28;20538;-60
2020/12/19 02:16:36;;;;;;;6.13;4.73;;;;;;;;;;5099358;28;20192;-59
2020/12/19 02:19:12;;;;;;;5.63;4.90;;;;;;;;;;5106746;28;20274;-59
2020/12/19 02:21:38;;;;;;;6.07;5.17;;;;;;;;;;5110863;28;20199;-63
2020/12/19 02:24:04;;;;;;;6.23;5.60;;;;;;;;;;5098156;28;20191;-60
2020/12/19 02:26:30;;;;;;;6.73;5.27;;;;;;;;;;5074051;28;20206;-60
2020/12/19 02:28:56;;;;;;;7.00;5.00;;;;;;;;;;5105318;28;20628;-59
2020/12/19 02:31:22;;;;;;;5.77;5.00;;;;;;;;;;5102742;28;20310;-59
2020/12/19 02:33:48;;;;;;;5.07;4.57;;;;;;;;;;5104624;28;20187;-59
2020/12/19 02:36:14;;;;;;;5.77;4.73;;;;;;;;;;5109768;28;20654;-60
2020/12/19 02:38:40;;;;;;;5.40;4.83;;;;;;;;;;5096580;28;20183;-59
2020/12/19 02:41:06;;;;;;;5.60;5.00;;;;;;;;;;5078806;28;20279;-59
2020/12/19 02:43:32;;;;;;;5.90;4.53;;;;;;;;;;5110697;28;20183;-59
2020/12/19 02:45:59;;;;;;;5.07;4.57;;;;;;;;;;5110419;27;20182;-60
2020/12/19 02:48:25;;;;;;;8.47;5.03;;;;;;;;;;5102661;27;20645;-59
2020/12/19 02:50:51;;;;;;;5.03;4.53;;;;;;;;;;5110059;28;20175;-60
2020/12/19 02:53:17;;;;;;;6.37;5.37;;;;;;;;;;5108429;28;20171;-61
2020/12/19 02:55:44;;;;;;;5.17;4.67;;;;;;;;;;5082053;28;20189;-61
2020/12/19 02:58:10;;;;;;;5.70;5.10;;;;;;;;;;5079481;28;20227;-60
2020/12/19 03:00:36;;;;;;;6.13;4.77;;;;;;;;;;5111211;28;20202;-59
2020/12/19 03:03:02;;;;;;;6.37;4.70;;;;;;;;;;5104198;28;20186;-59
2020/12/19 03:05:28;;;;;;;5.33;4.83;;;;;;;;;;5090682;28;20307;-60
2020/12/19 03:07:54;;;;;;;6.40;4.47;;;;;;;;;;5105118;28;20254;-61
2020/12/19 03:10:20;;;;;;;5.13;4.23;;;;;;;;;;5091143;28;20627;-60
2020/12/19 03:12:46;;;;;;;6.50;5.33;;;;;;;;;;5093246;28;20179;-59
2020/12/19 03:15:12;;;;;;;5.80;5.20;;;;;;;;;;5103061;27;20211;-60
2020/12/19 03:17:38;;;;;;;6.10;5.37;;;;;;;;;;5092751;28;20216;-62
2020/12/19 03:20:04;;;;;;;5.87;5.17;;;;;;;;;;5096093;28;20592;-62
2020/12/19 03:22:30;;;;;;;5.43;4.93;;;;;;;;;;5104547;28;20238;-60
2020/12/19 03:24:56;;;;;;;5.90;5.23;;;;;;;;;;5110761;27;20670;-59
2020/12/19 03:27:22;;;;;;;6.30;5.70;;;;;;;;;;5093649;28;20228;-60
2020/12/19 03:29:48;;;;;;;6.07;4.60;;;;;;;;;;5091234;28;20175;-60
2020/12/19 03:32:14;;;;;;;7.53;4.80;;;;;;;;;;5097452;28;20182;-61
2020/12/19 03:34:40;;;;;;;5.40;4.90;;;;;;;;;;5110772;28;20228;-61
2020/12/19 03:37:06;;;;;;;6.33;5.20;;;;;;;;;;5097636;28;20175;-59
2020/12/19 03:39:32;;;;;;;6.73;5.47;;;;;;;;;;5093083;28;20190;-60
2020/12/19 03:41:58;;;;;;;6.37;5.57;;;;;;;;;;5091111;28;20207;-60
2020/12/19 03:44:24;;;;;;;9.53;4.87;;;;;;;;;;5094780;28;20635;-60
2020/12/19 03:46:50;;;;;;;6.23;5.53;;;;;;;;;;5090584;28;20172;-60
2020/12/19 03:49:16;;;;;;;8.17;5.43;;;;;;;;;;5100196;28;20188;-59
2020/12/19 03:51:42;;;;;;;6.47;5.30;;;;;;;;;;5109650;28;20565;-59
2020/12/19 03:54:08;;;;;;;6.90;5.40;;;;;;;;;;5100999;28;20176;-61
2020/12/19 03:56:34;;;;;;;7.53;5.57;;;;;;;;;;5093216;28;20195;-61
2020/12/19 03:59:00;;;;;;;7.10;5.50;;;;;;;;;;5104765;28;20171;-62
2020/12/19 04:01:26;;;;;;;6.13;5.13;;;;;;;;;;5095507;28;20288;-60
2020/12/19 04:03:52;;;;;;;7.33;5.50;;;;;;;;;;5102507;28;20226;-59
2020/12/19 04:06:18;;;;;;;6.10;5.50;;;;;;;;;;5101340;28;20183;-60
2020/12/19 04:08:44;;;;;;;6.93;5.73;;;;;;;;;;5102757;28;20183;-62
2020/12/19 04:11:10;;;;;;;7.40;5.50;;;;;;;;;;5102849;28;20521;-60
2020/12/19 04:13:36;;;;;;;7.47;5.93;;;;;;;;;;5102937;28;20175;-61
2020/12/19 04:16:02;;;;;;;6.37;5.47;;;;;;;;;;5093041;28;20184;-60
2020/12/19 04:18:28;;;;;;;7.97;5.90;;;;;;;;;;5098835;28;20209;-60
2020/12/19 04:20:54;;;;;;;7.80;6.53;;;;;;;;;;5095318;28;20666;-62
2020/12/19 04:23:20;;;;;;;6.90;5.60;;;;;;;;;;5096644;28;20209;-59
2020/12/19 04:25:46;;;;;;;7.50;6.47;;;;;;;;;;5090472;28;20204;-59
2020/12/19 04:28:12;;;;;;;7.70;6.03;;;;;;;;;;5102249;28;20240;-59
2020/12/19 04:30:38;;;;;;;6.80;5.33;;;;;;;;;;5108542;28;20293;-61
2020/12/19 04:33:04;;;;;;;8.33;6.63;;;;;;;;;;5102436;28;20179;-60
2020/12/19 04:35:31;;;;;;;8.33;6.80;;;;;;;;;;5107146;28;20692;-60
2020/12/19 04:37:57;;;;;;;7.57;6.30;;;;;;;;;;5106604;28;20557;-59
2020/12/19 04:40:23;;;;;;;9.23;6.23;;;;;;;;;;5101903;28;20203;-59
2020/12/19 04:42:49;;;;;;;7.90;6.27;;;;;;;;;;5094848;28;20182;-60
2020/12/19 04:45:15;;;;;;;8.67;6.63;;;;;;;;;;5077134;28;20656;-61
2020/12/19 04:47:41;;;;;;;6.97;5.97;;;;;;;;;;5094151;28;20179;-60
2020/12/19 04:50:07;;;;;;;9.03;6.20;;;;;;;;;;5104774;28;20210;-59
2020/12/19 04:52:33;;;;;;;8.63;6.23;;;;;;;;;;5109041;28;20171;-60
2020/12/19 04:54:59;;;;;;;8.70;6.90;;;;;;;;;;5098555;28;20665;-59
2020/12/19 04:57:25;;;;;;;6.20;5.47;;;;;;;;;;5094696;28;20637;-60
2020/12/19 04:59:51;;;;;;;7.23;6.10;;;;;;;;;;5091196;28;20515;-60
2020/12/19 05:02:17;;;;;;;9.20;6.30;;;;;;;;;;5107558;28;20183;-59
2020/12/19 05:04:43;;;;;;;8.30;6.40;;;;;;;;;;5109367;28;20203;-59
2020/12/19 05:07:10;;;;;;;8.63;6.20;;;;;;;;;;5108837;28;20175;-60
2020/12/19 05:09:37;;;;;;;9.20;6.60;;;;;;;;;;5101409;28;20175;-60
2020/12/19 05:12:03;;;;;;;8.47;6.53;;;;;;;;;;5110628;28;20182;-60
2020/12/19 05:14:33;;;;;;;7.63;6.23;;;;;;;;;;5095056;28;20175;-59
2020/12/19 05:17:00;;;;;;;9.37;6.83;;;;;;;;;;5090848;28;20537;-60
2020/12/19 05:19:27;;;;;;;7.17;6.13;;;;;;;;;;5086677;28;20191;-60
2020/12/19 05:21:53;;;;;;;7.80;6.37;;;;;;;;;;5110766;28;20212;-60
2020/12/19 05:24:24;;;;;;;8.23;6.50;;;;;;;;;;5085878;28;20246;-62
2020/12/19 05:26:50;;;;;;;8.33;6.70;;;;;;;;;;5091011;28;20851;-60
2020/12/19 05:29:16;;;;;;;7.77;6.40;;;;;;;;;;5091575;28;20176;-61
2020/12/19 05:31:42;;;;;;;8.07;6.90;;;;;;;;;;5101005;28;20329;-59
2020/12/19 05:34:12;;;;;;;7.57;6.73;;;;;;;;;;5098977;28;20620;-58
2020/12/19 05:36:38;;;;;;;9.50;7.23;;;;;;;;;;5094632;28;20661;-60
2020/12/19 05:39:08;;;;;;;8.93;6.70;;;;;;;;;;5089829;28;20187;-59
2020/12/19 05:41:40;;;;;;;7.63;6.23;;;;;;;;;;5111796;28;20244;-59
2020/12/19 05:44:06;;;;;;;9.83;6.70;;;;;;;;;;5108432;28;20179;-62
2020/12/19 05:46:36;;;;;;;7.63;6.50;;;;;;;;;;5104019;28;20175;-59
2020/12/19 05:49:03;;;;;;;8.20;6.83;;;;;;;;;;5106612;28;20193;-58
2020/12/19 05:51:30;;;;;;;9.23;6.73;;;;;;;;;;5096121;28;20179;-61
2020/12/19 05:54:01;;;;;;;12.17;6.97;;;;;;;;;;5110261;27;20190;-59
2020/12/19 05:56:28;;;;;;;7.87;6.73;;;;;;;;;;5110901;28;20245;-59
2020/12/19 05:58:54;;;;;;;8.30;6.17;;;;;;;;;;5099998;28;20233;-59
2020/12/19 06:01:20;;;;;;;10.80;7.27;;;;;;;;;;5085069;28;20234;-60
2020/12/19 06:03:48;;;;;;;7.63;6.70;;;;;;;;;;5100051;28;20223;-61
2020/12/19 06:06:14;;;;;;;9.30;6.63;;;;;;;;;;5100288;28;20172;-59
2020/12/19 06:08:40;;;;;;;9.30;7.23;;;;;;;;;;5093529;28;20183;-60
2020/12/19 06:11:11;;;;;;;9.90;7.30;;;;;;;;;;5111147;28;20179;-60
2020/12/19 06:13:39;;;;;;;8.00;6.77;;;;;;;;;;5105032;28;20193;-61
2020/12/19 06:16:08;;;;;;;10.33;7.67;;;;;;;;;;5102282;28;20642;-60
2020/12/19 06:18:50;;;;;;;9.97;7.30;;;;;;;;;;5103034;28;20178;-60
2020/12/19 06:21:16;;;;;;;9.47;7.10;;;;;;;;;;5105733;28;20219;-63
2020/12/19 06:23:43;;;;;;;9.57;7.57;;;;;;;;;;5100339;28;20631;-60
2020/12/19 06:26:09;;;;;;;7.97;6.80;;;;;;;;;;5100316;28;20204;-60
2020/12/19 06:28:42;;;;;;;9.30;7.63;;;;;;;;;;5102502;28;20195;-61
2020/12/19 06:31:12;;;;;;;7.67;6.90;;;;;;;;;;5075093;28;20192;-60
2020/12/19 06:33:39;;;;;;;7.87;6.60;;;;;;;;;;5099578;28;20171;-60
2020/12/19 06:36:17;;;;;;;9.53;7.60;;;;;;;;;;5107411;28;20206;-59
2020/12/19 06:38:43;;;;;;;10.57;7.27;;;;;;;;;;5110644;28;20202;-60
2020/12/19 06:41:09;;;;;;;10.07;7.87;;;;;;;;;;5092440;28;20211;-60
2020/12/19 06:43:35;;;;;;;8.70;7.80;;;;;;;;;;5107642;28;20183;-60
2020/12/19 06:46:01;;;;;;;8.90;7.40;;;;;;;;;;5111584;28;20679;-61
2020/12/19 06:48:29;;;;;;;10.43;7.43;;;;;;;;;;5088536;28;20179;-59
2020/12/19 06:50:57;;;;;;;11.13;7.23;;;;;;;;;;5091053;28;20555;-59
2020/12/19 06:53:23;;;;;;;9.63;7.23;;;;;;;;;;5099321;28;20187;-60
2020/12/19 06:55:49;;;;;;;8.83;7.70;;;;;;;;;;5107899;28;20638;-58
2020/12/19 06:58:26;;;;;;;10.10;7.10;;;;;;;;;;5094546;28;20182;-60
2020/12/19 07:00:53;;;;;;;7.80;7.00;;;;;;;;;;5126106;27;20202;-59
2020/12/19 07:03:34;;;;;;;10.53;7.80;;;;;;;;;;5100032;28;20167;-60
2020/12/19 07:06:18;;;;;;;10.20;7.73;;;;;;;;;;5104743;28;20183;-60
2020/12/19 07:08:47;;;;;;;9.53;7.20;;;;;;;;;;5079392;28;20187;-59
2020/12/19 07:11:33;;;;;;;8.60;7.33;;;;;;;;;;5106013;28;20175;-60
2020/12/19 07:13:59;;;;;;;9.63;7.20;;;;;;;;;;5119200;27;20214;-60
2020/12/19 07:16:47;;;;;;;10.47;7.70;;;;;;;;;;5112611;27;20178;-60
2020/12/19 07:19:29;;;;;;;10.50;8.10;;;;;;;;;;5103898;27;20176;-59
2020/12/19 07:21:56;;;;;;;9.57;7.40;;;;;;;;;;5086972;28;20607;-59
2020/12/19 07:24:22;;;;;;;11.80;7.27;;;;;;;;;;5108049;27;20657;-61
2020/12/19 07:26:50;;;;;;;9.47;7.63;;;;;;;;;;5095620;28;20200;-60
2020/12/19 07:29:17;;;;;;;9.30;7.70;;;;;;;;;;5104886;28;20697;-60
2020/12/19 07:31:44;;;;;;;9.53;7.87;;;;;;;;;;5094274;28;20208;-60
2020/12/19 07:34:10;;;;;;;9.77;7.90;;;;;;;;;;5102755;28;20716;-62
2020/12/19 07:36:39;;;;;;;8.87;7.57;;;;;;;;;;5111395;28;20178;-59
2020/12/19 07:39:05;;;;;;;9.30;7.53;;;;;;;;;;5107796;28;20225;-59
2020/12/19 07:41:31;;;;;;;10.10;7.77;;;;;;;;;;5102377;28;20706;-60
2020/12/19 07:44:14;;;;;;;11.53;7.40;;;;;;;;;;5083774;28;20318;-59
2020/12/19 07:47:10;;;;;;;10.30;7.90;;;;;;;;;;5096125;28;20176;-60
2020/12/19 07:49:54;;;;;;;10.50;8.17;;;;;;;;;;5083075;28;20251;-60
2020/12/19 07:52:24;;;;;;;9.57;7.23;;;;;;;;;;5075065;28;20184;-59
2020/12/19 07:54:53;;;;;;;11.53;8.37;;;;;;;;;;5108736;28;20179;-60
2020/12/19 07:57:19;;;;;;;9.93;7.63;;;;;;;;;;5100505;28;20168;-58
2020/12/19 07:59:47;;;;;;;9.47;8.03;;;;;;;;;;5090583;28;20175;-60
2020/12/19 08:02:14;;;;;;;9.77;8.33;;;;;;;;;;5110517;27;20602;-60
2020/12/19 08:04:40;;;;;;;8.73;7.83;;;;;;;;;;5109924;27;20771;-60
2020/12/19 08:07:06;;;;;;;10.20;8.70;;;;;;;;;;5090620;28;20176;-59
2020/12/19 08:09:32;;;;;;;9.60;7.53;;;;;;;;;;5072006;28;20186;-60
2020/12/19 08:11:59;;;;;;;9.13;7.83;;;;;;;;;;5096768;28;20205;-58
2020/12/19 08:14:26;;;;;;;11.30;9.87;;;;;;;;;;5114808;27;20170;-58
2020/12/19 08:16:52;;;;;;;9.80;8.03;;;;;;;;;;5094722;28;20652;-60
2020/12/19 08:19:23;;;;;;;9.90;7.97;;;;;;;;;;5086602;27;20248;-59
2020/12/19 08:21:50;;;;;;;9.67;7.90;;;;;;;;;;5097174;28;20234;-60
2020/12/19 08:24:16;;;;;;;9.40;8.40;;;;;;;;;;5092861;28;20665;-59
2020/12/19 08:26:42;;;;;;;9.23;7.83;;;;;;;;;;5092205;28;20180;-58
2020/12/19 08:29:09;;;;;;;10.37;8.13;;;;;;;;;;5091266;28;20579;-60
2020/12/19 08:31:36;;;;;;;11.23;7.90;;;;;;;;;;5090229;28;20290;-59
2020/12/19 08:34:03;;;;;;;9.43;7.87;;;;;;;;;;5097649;28;20708;-62
2020/12/19 08:36:29;;;;;;;11.23;8.53;;;;;;;;;;5096079;28;20179;-60
2020/12/19 08:39:15;;;;;;;8.67;7.63;;;;;;;;;;5104261;28;20214;-59
2020/12/19 08:41:41;;;;;;;9.63;8.20;;;;;;;;;;5107152;28;20199;-61
2020/12/19 08:44:13;;;;;;;9.57;7.67;;;;;;;;;;5098002;28;20701;-60
2020/12/19 08:46:39;;;;;;;10.67;7.70;;;;;;;;;;5094815;28;20652;-59
2020/12/19 08:49:06;;;;;;;9.50;7.70;;;;;;;;;;5100157;28;20251;-58
2020/12/19 08:51:32;;;;;;;9.60;7.80;;;;;;;;;;5100356;28;20203;-61
2020/12/19 08:54:10;;;;;;;10.20;8.70;;;;;;;;;;5107524;28;20240;-60
2020/12/19 08:56:37;;;;;;;10.03;8.33;;;;;;;;;;5090083;28;20197;-59
2020/12/19 08:59:03;;;;;;;8.70;7.77;;;;;;;;;;5100589;28;20188;-62
2020/12/19 09:01:32;;;;;;;9.27;7.70;;;;;;;;;;5102942;28;20195;-59
2020/12/19 09:04:08;;;;;;;8.23;6.83;;;;;;;;;;5085183;28;20215;-60
2020/12/19 09:06:48;;;;;;;9.13;7.43;;;;;;;;;;5107997;28;20284;-60
2020/12/19 09:09:17;;;;;;;12.40;8.57;;;;;;;;;;5100956;28;20159;-60
2020/12/19 09:11:43;;;;;;;13.33;7.50;;;;;;;;;;5116026;27;20672;-59
2020/12/19 09:14:10;;;;;;;12.40;8.53;;;;;;;;;;5104995;28;20533;-59
2020/12/19 09:16:46;;;;;;;8.50;7.00;;;;;;;;;;5100816;28;20576;-59
2020/12/19 09:19:15;;;;;;;8.77;6.63;;;;;;;;;;5113498;28;20174;-60
2020/12/19 09:21:42;;;;;;;8.20;6.30;;;;;;;;;;5106087;28;20198;-60
2020/12/19 09:24:08;;;;;;;8.13;7.20;;;;;;;;;;5104388;28;20702;-62
2020/12/19 09:26:34;;;;;;;10.73;6.73;;;;;;;;;;5099242;28;20180;-60
2020/12/19 09:29:00;;;;;;;7.90;6.63;;;;;;;;;;5101914;28;20198;-60
2020/12/19 09:31:28;;;;;;;10.27;7.17;;;;;;;;;;5097558;28;20211;-60
2020/12/19 09:33:54;;;;;;;7.70;6.90;;;;;;;;;;5103663;28;20183;-60
2020/12/19 09:36:22;;;;;;;10.57;7.53;;;;;;;;;;5099791;28;20197;-60
2020/12/19 09:38:48;;;;;;;8.53;7.20;;;;;;;;;;5099059;28;20582;-60
2020/12/19 09:41:15;;;;;;;11.47;7.50;;;;;;;;;;5113103;27;20244;-60
2020/12/19 09:43:41;;;;;;;9.80;6.60;;;;;;;;;;5112030;27;20183;-60
2020/12/19 09:46:07;;;;;;;9.23;7.20;;;;;;;;;;5102494;28;20182;-60
2020/12/19 09:48:36;;;;;;;7.17;6.10;;;;;;;;;;5102909;28;20175;-61
2020/12/19 09:51:02;;;;;;;8.03;6.73;;;;;;;;;;5107024;28;20176;-60
2020/12/19 09:53:28;;;;;;;10.40;6.63;;;;;;;;;;5087769;28;20179;-59
2020/12/19 09:55:55;;;;;;;8.00;6.77;;;;;;;;;;5097190;28;20553;-61
2020/12/19 09:58:21;;;;;;;7.63;6.80;;;;;;;;;;5106177;28;20183;-59
2020/12/19 10:00:47;;;;;;;12.27;8.03;;;;;;;;;;5104546;28;20279;-61
2020/12/19 10:03:13;;;;;;;16.67;6.43;;;;;;;;;;5083928;28;20270;-62
2020/12/19 10:05:39;;;;;;;10.30;7.03;;;;;;;;;;5096238;28;20296;-62
2020/12/19 10:08:06;;;;;;;8.37;6.50;;;;;;;;;;5094441;28;20180;-61
2020/12/19 10:10:34;;;;;;;9.00;5.97;;;;;;;;;;5077344;27;20188;-63
2020/12/19 10:13:00;;;;;;;7.47;5.67;;;;;;;;;;5102150;28;20196;-61
2020/12/19 10:15:26;;;;;;;6.30;5.40;;;;;;;;;;5104977;28;20191;-60
2020/12/19 10:17:52;;;;;;;7.13;5.77;;;;;;;;;;5095618;28;20201;-61
2020/12/19 10:20:18;;;;;;;6.33;5.73;;;;;;;;;;5107075;28;20183;-61
2020/12/19 10:22:44;;;;;;;10.67;5.90;;;;;;;;;;5112374;28;20187;-61
2020/12/19 10:25:10;;;;;;;7.50;5.90;;;;;;;;;;5096837;28;20527;-61
2020/12/19 10:27:36;;;;;;;7.03;5.03;;;;;;;;;;5103944;28;20217;-60
2020/12/19 10:30:03;;;;;;;8.07;5.67;;;;;;;;;;5111531;28;20199;-62
2020/12/19 10:32:29;;;;;;;6.37;5.10;;;;;;;;;;5103489;28;20184;-61
2020/12/19 10:34:55;;;;;;;6.70;5.47;;;;;;;;;;5099506;28;20179;-61
2020/12/19 10:37:21;;;;;;;6.27;5.07;;;;;;;;;;5093698;28;20527;-60
2020/12/19 10:39:47;;;;;;;10.57;5.23;;;;;;;;;;5112481;28;20167;-60
2020/12/19 10:42:14;;;;;;;7.27;5.13;;;;;;;;;;5100844;27;20203;-60
2020/12/19 10:44:40;;;;;;;20.37;5.73;;;;;;;;;;5104729;28;20183;-60
2020/12/19 10:47:06;;;;;;;5.10;4.60;;;;;;;;;;5113001;28;20183;-60
2020/12/19 10:49:32;;;;;;;5.57;4.50;;;;;;;;;;5100353;28;20217;-62
2020/12/19 10:52:02;;;;;;;5.40;4.90;;;;;;;;;;5102836;28;20171;-58
2020/12/19 10:54:28;;;;;;;5.37;4.87;;;;;;;;;;5104025;28;20685;-59
2020/12/19 10:56:54;;;;;;;38.07;10.33;;;;;;;;;;5104749;28;20257;-61
2020/12/19 10:59:20;;;;;;;34.83;7.13;;;;;;;;;;5093749;28;20175;-59
2020/12/19 11:01:46;;;;;;;44.00;8.43;;;;;;;;;;5112273;28;20210;-58
2020/12/19 11:04:13;;;;;;;9.80;5.13;;;;;;;;;;5110847;28;20219;-60
2020/12/19 11:06:39;;;;;;;7.47;4.43;;;;;;;;;;5112301;28;20171;-61
2020/12/19 11:09:05;;;;;;;10.73;4.70;;;;;;;;;;5105586;28;20182;-61
2020/12/19 11:11:31;;;;;;;171.10;18.30;;;;;;;;;;5104122;27;20184;-61
2020/12/19 11:13:57;;;;;;;139.33;15.53;;;;;;;;;;5095315;28;20187;-61
2020/12/19 11:16:24;;;;;;;199.30;24.27;;;;;;;;;;5110948;27;20253;-61
2020/12/19 11:18:50;;;;;;;127.07;19.07;;;;;;;;;;5124352;27;20183;-61
2020/12/19 11:21:17;;;;;;;128.53;18.27;;;;;;;;;;5110476;28;20252;-61
2020/12/19 11:23:43;;;;;;;16.60;5.00;;;;;;;;;;5112073;28;20216;-61
2020/12/19 11:26:09;;;;;;;12.03;5.30;;;;;;;;;;5112026;28;20174;-61
2020/12/19 11:28:36;;;;;;;11.13;4.33;;;;;;;;;;5101116;28;20186;-62
2020/12/19 11:31:02;;;;;;;6.73;4.87;;;;;;;;;;5105115;28;20207;-62
2020/12/19 11:33:28;;;;;;;17.10;6.10;;;;;;;;;;5091064;28;20183;-60
2020/12/19 11:35:54;;;;;;;39.67;9.23;;;;;;;;;;5104944;28;20179;-61
2020/12/19 11:38:20;;;;;;;152.40;16.33;;;;;;;;;;5110408;28;20179;-60
2020/12/19 11:40:46;;;;;;;113.43;17.63;;;;;;;;;;5117236;27;20213;-61
2020/12/19 11:43:12;;;;;;;125.10;16.13;;;;;;;;;;5081851;28;20191;-63
2020/12/19 11:45:38;;;;;;;101.47;13.30;;;;;;;;;;5081762;28;20184;-60
2020/12/19 11:48:04;;;;;;;304.23;29.90;;;;;;;;;;5095842;28;20252;-64
2020/12/19 11:50:30;;;;;;;137.07;18.97;;;;;;;;;;5092719;28;20621;-61
2020/12/19 11:52:57;;;;;;;73.33;13.43;;;;;;;;;;5110096;28;20191;-61
2020/12/19 11:55:23;;;;;;;77.77;11.93;;;;;;;;;;5110729;28;20187;-63
2020/12/19 11:57:49;;;;;;;112.67;13.70;;;;;;;;;;5110086;28;20190;-61
2020/12/19 12:00:15;;;;;;;25.77;5.63;;;;;;;;;;5111088;28;20179;-61
2020/12/19 12:02:41;;;;;;;51.13;7.17;;;;;;;;;;5111855;28;20160;-61
2020/12/19 12:05:07;;;;;;;26.07;6.97;;;;;;;;;;5091087;28;20273;-61
2020/12/19 12:07:33;;;;;;;91.23;8.80;;;;;;;;;;5110604;28;20179;-62
2020/12/19 12:09:59;;;;;;;27.43;8.23;;;;;;;;;;5111553;28;20171;-61
2020/12/19 12:12:25;;;;;;;17.40;4.23;;;;;;;;;;5111133;28;20543;-61
2020/12/19 12:14:51;;;;;;;16.37;5.00;;;;;;;;;;5110850;28;20225;-61
2020/12/19 12:17:17;;;;;;;14.10;5.33;;;;;;;;;;5111257;28;20179;-62
2020/12/19 12:19:43;;;;;;;7.57;3.13;;;;;;;;;;5106531;28;20238;-62
2020/12/19 12:22:09;;;;;;;14.90;4.97;;;;;;;;;;5112137;28;20209;-61
2020/12/19 12:24:35;;;;;;;8.70;4.63;;;;;;;;;;5118193;27;20626;-61
2020/12/19 12:27:01;;;;;;;5.67;4.23;;;;;;;;;;5091499;28;20171;-62
2020/12/19 12:29:27;;;;;;;12.43;5.37;;;;;;;;;;5108679;28;20215;-61
2020/12/19 12:31:53;;;;;;;9.53;5.20;;;;;;;;;;5108194;28;20278;-61
2020/12/19 12:34:19;;;;;;;5.30;4.17;;;;;;;;;;5109133;28;20232;-61
2020/12/19 12:36:45;;;;;;;18.23;3.97;;;;;;;;;;5109594;28;20182;-61
2020/12/19 12:39:11;;;;;;;15.07;5.63;;;;;;;;;;5108312;28;20202;-62
2020/12/19 12:41:37;;;;;;;13.83;6.03;;;;;;;;;;5112604;28;20300;-62
2020/12/19 12:44:04;;;;;;;18.17;6.27;;;;;;;;;;5114066;28;20668;-62
2020/12/19 12:46:30;;;;;;;8.53;4.57;;;;;;;;;;5094911;28;20228;-61
2020/12/19 12:48:56;;;;;;;5.97;4.00;;;;;;;;;;5105709;28;20179;-61
2020/12/19 12:51:22;;;;;;;7.13;4.00;;;;;;;;;;5113270;28;20659;-61
2020/12/19 12:53:50;;;;;;;11.60;3.93;;;;;;;;;;5111883;28;20653;-62
2020/12/19 12:56:16;;;;;;;11.97;4.00;;;;;;;;;;5114034;28;20209;-61
2020/12/19 12:58:42;;;;;;;4.73;3.27;;;;;;;;;;5114207;28;20598;-61
2020/12/19 13:01:08;;;;;;;8.67;4.90;;;;;;;;;;5113076;28;20277;-61
2020/12/19 13:03:34;;;;;;;3.73;3.20;;;;;;;;;;5095267;28;20179;-61
2020/12/19 13:06:00;;;;;;;4.07;3.17;;;;;;;;;;5113050;28;20613;-62
2020/12/19 13:08:26;;;;;;;4.97;2.80;;;;;;;;;;5112827;28;20603;-61
2020/12/19 13:10:52;;;;;;;3.50;2.70;;;;;;;;;;5109829;27;21318;-62
2020/12/19 13:13:19;;;;;;;7.83;3.00;;;;;;;;;;5113704;28;20183;-61
2020/12/19 13:15:45;;;;;;;3.60;3.17;;;;;;;;;;5113747;28;20220;-62
2020/12/19 13:18:12;;;;;;;4.47;2.93;;;;;;;;;;5105207;28;20179;-63
2020/12/19 13:20:38;;;;;;;5.10;3.10;;;;;;;;;;5111881;28;20223;-62
2020/12/19 13:23:04;;;;;;;6.07;4.30;;;;;;;;;;5111000;28;20175;-64
2020/12/19 13:25:30;;;;;;;4.20;2.53;;;;;;;;;;5101449;28;20179;-62
2020/12/19 13:27:56;;;;;;;4.47;2.93;;;;;;;;;;5111853;28;20180;-62
2020/12/19 13:30:23;;;;;;;3.43;2.87;;;;;;;;;;5113685;27;20274;-61
2020/12/19 13:32:49;;;;;;;4.00;2.60;;;;;;;;;;5112261;28;20179;-61
2020/12/19 13:35:17;;;;;;;5.00;3.60;;;;;;;;;;5113228;28;20552;-61
2020/12/19 13:37:43;;;;;;;7.37;2.97;;;;;;;;;;5113040;28;20175;-61
2020/12/19 13:40:09;;;;;;;3.17;2.60;;;;;;;;;;5102989;27;20861;-61
2020/12/19 13:42:35;;;;;;;3.17;2.73;;;;;;;;;;5099754;28;20222;-61
2020/12/19 13:45:02;;;;;;;5.70;3.27;;;;;;;;;;5113494;28;20601;-63
2020/12/19 13:47:28;;;;;;;3.50;2.87;;;;;;;;;;5113125;28;20529;-61
2020/12/19 13:49:55;;;;;;;4.67;2.73;;;;;;;;;;5114576;27;20179;-61
2020/12/19 13:52:21;;;;;;;4.03;3.33;;;;;;;;;;5111864;28;20206;-62
2020/12/19 13:54:47;;;;;;;3.47;3.10;;;;;;;;;;5105675;28;20549;-62
2020/12/19 13:57:13;;;;;;;3.33;2.80;;;;;;;;;;5109981;28;20194;-61
2020/12/19 13:59:39;;;;;;;3.73;3.00;;;;;;;;;;5110037;27;20226;-61
2020/12/19 14:02:07;;;;;;;3.07;2.77;;;;;;;;;;5094197;28;20206;-62
2020/12/19 14:04:34;;;;;;;3.33;2.50;;;;;;;;;;5094569;27;20694;-62
2020/12/19 14:07:00;;;;;;;2.80;2.43;;;;;;;;;;5079259;28;20176;-61
2020/12/19 14:09:26;;;;;;;3.03;2.63;;;;;;;;;;5062510;28;20191;-61
2020/12/19 14:11:52;;;;;;;3.53;2.87;;;;;;;;;;5090657;28;20263;-62
2020/12/19 14:14:18;;;;;;;4.17;3.13;;;;;;;;;;5090029;28;20690;-62
2020/12/19 14:16:44;;;;;;;6.70;3.20;;;;;;;;;;5091138;28;20180;-62
2020/12/19 14:19:11;;;;;;;5.23;2.87;;;;;;;;;;5076595;28;20635;-61
2020/12/19 14:21:38;;;;;;;4.17;2.77;;;;;;;;;;5086008;28;20561;-62
2020/12/19 14:24:07;;;;;;;4.37;2.67;;;;;;;;;;5077915;28;20639;-61
2020/12/19 14:26:34;;;;;;;4.10;2.60;;;;;;;;;;5083319;28;20193;-61
2020/12/19 14:29:00;;;;;;;3.80;3.10;;;;;;;;;;5077958;28;20184;-62
2020/12/19 14:31:26;;;;;;;3.97;2.53;;;;;;;;;;5058478;28;20278;-62
2020/12/19 14:33:52;;;;;;;4.43;2.97;;;;;;;;;;5077532;28;20185;-62
2020/12/19 14:36:23;;;;;;;5.30;2.77;;;;;;;;;;5081347;28;20250;-61
2020/12/19 14:38:49;;;;;;;5.47;2.57;;;;;;;;;;5086682;28;20183;-62